createdAt,value
2019-03-12T00:01:35.458Z,3.80
2019-03-12T00:04:03.320Z,3.60
2019-03-12T00:06:31.107Z,3.83
2019-03-12T00:08:58.915Z,3.77
2019-03-12T00:11:26.764Z,3.60
2019-03-12T00:13:54.656Z,3.70
2019-03-12T00:16:22.451Z,4.17
2019-03-12T00:18:50.334Z,3.80
2019-03-12T00:21:18.228Z,3.70
2019-03-12T00:23:46.038Z,3.70
2019-03-12T00:26:13.901Z,4.03
2019-03-12T00:28:41.703Z,3.70
2019-03-12T00:31:09.510Z,3.50
2019-03-12T00:33:37.344Z,3.60
2019-03-12T00:36:05.152Z,3.80
2019-03-12T00:38:33.027Z,3.60
2019-03-12T00:41:00.869Z,3.53
2019-03-12T00:43:28.685Z,3.80
2019-03-12T00:45:56.508Z,3.33
2019-03-12T00:48:24.375Z,3.70
2019-03-12T00:50:52.125Z,4.10
2019-03-12T00:53:20.028Z,4.20
2019-03-12T00:55:47.807Z,3.30
2019-03-12T00:58:15.590Z,3.60
2019-03-12T01:00:43.484Z,4.10
2019-03-12T01:03:11.313Z,3.80
2019-03-12T01:05:39.094Z,4.10
2019-03-12T01:08:06.922Z,3.60
2019-03-12T01:10:34.714Z,3.83
2019-03-12T01:13:14.301Z,3.90
2019-03-12T01:15:42.178Z,3.33
2019-03-12T01:18:09.997Z,4.67
2019-03-12T01:20:37.819Z,3.60
2019-03-12T01:23:06.098Z,3.70
2019-03-12T01:25:33.912Z,3.70
2019-03-12T01:28:01.793Z,3.80
2019-03-12T01:30:29.567Z,3.57
2019-03-12T01:32:57.380Z,3.80
2019-03-12T01:35:25.260Z,3.77
2019-03-12T01:37:53.045Z,3.60
2019-03-12T01:40:20.961Z,4.00
2019-03-12T01:42:48.866Z,3.80
2019-03-12T01:45:16.691Z,3.70
2019-03-12T01:47:44.566Z,3.90
2019-03-12T01:50:12.630Z,4.00
2019-03-12T01:52:40.445Z,3.73
2019-03-12T01:55:08.932Z,3.60
2019-03-12T01:57:36.785Z,3.40
2019-03-12T02:00:05.627Z,3.92
2019-03-12T02:02:33.518Z,3.77
2019-03-12T02:05:01.330Z,3.40
2019-03-12T02:07:29.122Z,3.87
2019-03-12T02:09:56.950Z,4.20
2019-03-12T02:12:24.730Z,4.00
2019-03-12T02:14:52.618Z,3.80
2019-03-12T02:17:20.396Z,4.10
2019-03-12T02:19:48.478Z,4.10
2019-03-12T02:22:16.416Z,3.87
2019-03-12T02:24:52.615Z,3.63
2019-03-12T02:27:13.841Z,3.50
2019-03-12T02:29:41.690Z,4.10
2019-03-12T02:32:09.538Z,3.85
2019-03-12T02:34:37.305Z,4.00
2019-03-12T02:37:05.457Z,3.77
2019-03-12T02:39:33.245Z,3.97
2019-03-12T02:42:01.048Z,4.17
2019-03-12T02:44:28.919Z,4.30
2019-03-12T02:46:57.042Z,3.42
2019-03-12T02:49:25.013Z,4.00
2019-03-12T02:51:52.773Z,4.20
2019-03-12T02:54:20.567Z,4.00
2019-03-12T02:56:48.453Z,3.73
2019-03-12T02:59:16.248Z,4.05
2019-03-12T03:01:44.069Z,3.67
2019-03-12T03:04:11.960Z,3.80
2019-03-12T03:06:53.605Z,3.98
2019-03-12T03:09:21.454Z,4.17
2019-03-12T03:11:51.011Z,3.70
2019-03-12T03:14:34.818Z,4.00
2019-03-12T03:17:06.325Z,3.80
2019-03-12T03:19:34.146Z,3.70
2019-03-12T03:22:02.024Z,3.92
2019-03-12T03:24:29.841Z,3.87
2019-03-12T03:26:57.652Z,3.60
2019-03-12T03:29:25.528Z,3.87
2019-03-12T03:31:53.331Z,4.37
2019-03-12T03:34:27.448Z,4.40
2019-03-12T03:36:51.092Z,3.50
2019-03-12T03:39:18.884Z,3.90
2019-03-12T03:41:46.749Z,3.90
2019-03-12T03:44:14.602Z,3.45
2019-03-12T03:46:42.413Z,3.95
2019-03-12T03:49:10.270Z,4.07
2019-03-12T03:51:38.067Z,3.92
2019-03-12T03:54:05.880Z,3.70
2019-03-12T03:56:33.776Z,4.05
2019-03-12T03:59:01.661Z,3.50
2019-03-12T04:01:30.055Z,3.90
2019-03-12T04:03:57.946Z,3.72
2019-03-12T04:06:25.845Z,4.08
2019-03-12T04:08:53.706Z,4.03
2019-03-12T04:11:21.514Z,3.90
2019-03-12T04:13:49.301Z,3.87
2019-03-12T04:16:17.146Z,4.20
2019-03-12T04:18:44.957Z,4.22
2019-03-12T04:21:12.763Z,4.28
2019-03-12T04:23:40.637Z,4.22
2019-03-12T04:26:08.759Z,4.00
2019-03-12T04:28:36.576Z,4.10
2019-03-12T04:31:04.393Z,3.87
2019-03-12T04:34:08.064Z,4.40
2019-03-12T04:36:35.942Z,3.80
2019-03-12T04:39:05.471Z,4.20
2019-03-12T04:41:33.260Z,4.55
2019-03-12T04:44:01.182Z,4.05
2019-03-12T04:46:29.021Z,4.67
2019-03-12T04:48:57.063Z,4.00
2019-03-12T04:51:24.889Z,3.70
2019-03-12T04:53:53.099Z,3.70
2019-03-12T04:56:20.870Z,4.12
2019-03-12T04:58:48.755Z,4.20
2019-03-12T05:01:16.703Z,3.77
2019-03-12T05:03:44.574Z,4.22
2019-03-12T05:06:12.650Z,3.85
2019-03-12T05:08:40.490Z,4.12
2019-03-12T05:11:08.286Z,3.90
2019-03-12T05:13:36.123Z,3.70
2019-03-12T05:16:03.944Z,4.20
2019-03-12T05:18:31.814Z,3.60
2019-03-12T05:20:59.644Z,3.70
2019-03-12T05:23:27.422Z,3.75
2019-03-12T05:25:55.264Z,3.92
2019-03-12T05:28:23.078Z,3.58
2019-03-12T05:30:50.966Z,3.87
2019-03-12T05:33:18.775Z,3.83
2019-03-12T05:35:46.592Z,4.37
2019-03-12T05:38:14.486Z,4.28
2019-03-12T05:40:42.283Z,4.03
2019-03-12T05:43:10.076Z,3.80
2019-03-12T05:45:37.953Z,3.75
2019-03-12T05:48:05.786Z,4.00
2019-03-12T05:50:33.572Z,3.72
2019-03-12T05:53:10.909Z,3.90
2019-03-12T05:55:38.686Z,3.87
2019-03-12T05:58:07.066Z,6.37
2019-03-12T06:00:34.849Z,6.58
2019-03-12T06:03:02.684Z,5.05
2019-03-12T06:05:30.544Z,4.90
2019-03-12T06:07:58.341Z,4.40
2019-03-12T06:10:26.166Z,4.15
2019-03-12T06:12:54.003Z,4.15
2019-03-12T06:15:21.810Z,3.70
2019-03-12T06:17:49.685Z,4.67
2019-03-12T06:20:17.608Z,4.05
2019-03-12T06:22:45.710Z,3.90
2019-03-12T06:25:13.751Z,3.90
2019-03-12T06:27:41.606Z,4.72
2019-03-12T06:30:10.417Z,3.90
2019-03-12T06:32:53.729Z,3.83
2019-03-12T06:35:32.164Z,4.12
2019-03-12T06:38:27.549Z,4.25
2019-03-12T06:41:03.023Z,3.98
2019-03-12T06:43:49.279Z,4.15
2019-03-12T06:46:51.534Z,3.77
2019-03-12T06:49:34.752Z,4.10
2019-03-12T06:52:30.683Z,3.50
2019-03-12T06:55:18.001Z,3.80
2019-03-12T06:58:42.158Z,3.50
2019-03-12T07:01:27.928Z,3.70
2019-03-12T07:04:21.137Z,3.53
2019-03-12T07:07:12.858Z,3.77
2019-03-12T07:10:12.044Z,3.40
2019-03-12T07:13:08.014Z,3.60
2019-03-12T07:15:52.981Z,4.17
2019-03-12T07:18:42.938Z,3.90
2019-03-12T07:21:24.054Z,4.00
2019-03-12T07:24:20.341Z,3.90
2019-03-12T07:27:04.018Z,3.67
2019-03-12T07:29:42.562Z,3.50
2019-03-12T07:32:38.729Z,3.93
2019-03-12T07:35:41.473Z,3.40
2019-03-12T07:38:27.446Z,3.57
2019-03-12T07:41:28.550Z,3.70
2019-03-12T07:44:06.524Z,3.43
2019-03-12T07:46:45.716Z,3.47
2019-03-12T07:49:31.299Z,3.60
2019-03-12T07:52:08.745Z,3.70
2019-03-12T07:55:01.955Z,3.90
2019-03-12T07:57:47.610Z,3.70
2019-03-12T08:00:46.514Z,3.27
2019-03-12T08:03:33.835Z,3.20
2019-03-12T08:06:23.971Z,3.70
2019-03-12T08:09:13.858Z,3.40
2019-03-12T08:11:56.172Z,3.53
2019-03-12T08:14:55.434Z,3.77
2019-03-12T08:17:29.408Z,3.73
2019-03-12T08:20:19.460Z,3.43
2019-03-12T08:22:56.056Z,3.60
2019-03-12T08:25:38.598Z,3.50
2019-03-12T08:28:28.450Z,3.73
2019-03-12T08:31:04.789Z,3.27
2019-03-12T08:33:50.621Z,3.50
2019-03-12T08:36:25.978Z,3.37
2019-03-12T08:39:07.649Z,3.73
2019-03-12T08:41:49.801Z,3.50
2019-03-12T08:44:37.466Z,3.10
2019-03-12T08:47:19.156Z,3.60
2019-03-12T08:50:04.714Z,3.40
2019-03-12T08:53:03.731Z,3.37
2019-03-12T08:55:45.044Z,3.30
2019-03-12T08:58:30.555Z,3.60
2019-03-12T09:01:23.449Z,3.53
2019-03-12T09:04:13.306Z,3.10
2019-03-12T09:07:00.605Z,3.30
2019-03-12T09:09:46.471Z,3.63
2019-03-12T09:12:26.606Z,3.00
2019-03-12T09:15:16.556Z,3.53
2019-03-12T09:18:02.140Z,3.20
2019-03-12T09:20:43.519Z,3.60
2019-03-12T09:23:27.376Z,3.43
2019-03-12T09:26:20.584Z,3.47
2019-03-12T09:28:59.073Z,3.80
2019-03-12T09:31:48.916Z,3.60
2019-03-12T09:34:34.799Z,3.40
2019-03-12T09:37:33.964Z,3.47
2019-03-12T09:40:32.053Z,3.80
2019-03-12T09:43:18.159Z,3.20
2019-03-12T09:46:06.902Z,3.50
2019-03-12T09:48:54.264Z,4.00
2019-03-12T09:51:38.933Z,3.70
2019-03-12T09:54:26.291Z,3.90
2019-03-12T09:57:24.617Z,3.70
2019-03-12T10:00:16.006Z,4.63
2019-03-12T10:02:54.084Z,4.20
2019-03-12T10:05:31.042Z,3.70
2019-03-12T10:08:24.096Z,3.97
2019-03-12T10:11:11.386Z,3.97
2019-03-12T10:13:47.023Z,3.67
2019-03-12T10:16:32.798Z,4.30
2019-03-12T10:19:10.231Z,3.83
2019-03-12T10:21:56.026Z,3.80
2019-03-12T10:24:40.127Z,3.57
2019-03-12T10:27:25.350Z,3.80
2019-03-12T10:30:21.562Z,3.63
2019-03-12T10:33:01.195Z,3.70
2019-03-12T10:35:39.547Z,3.37
2019-03-12T10:38:59.432Z,3.60
2019-03-12T10:41:36.924Z,3.37
2019-03-12T10:44:15.489Z,3.20
2019-03-12T10:46:48.469Z,3.40
2019-03-12T10:49:16.340Z,2.97
2019-03-12T10:51:44.118Z,3.33
2019-03-12T10:54:12.016Z,3.23
2019-03-12T10:56:39.807Z,3.30
2019-03-12T10:59:07.588Z,3.50
2019-03-12T11:01:35.432Z,3.40
2019-03-12T11:04:03.250Z,3.27
2019-03-12T11:06:31.044Z,5.13
2019-03-12T11:08:58.878Z,3.70
2019-03-12T11:11:26.673Z,3.13
2019-03-12T11:13:54.479Z,3.37
2019-03-12T11:16:22.322Z,3.20
2019-03-12T11:18:50.119Z,3.00
2019-03-12T11:21:17.936Z,3.20
2019-03-12T11:23:45.815Z,3.03
2019-03-12T11:26:13.621Z,3.20
2019-03-12T11:28:41.440Z,3.10
2019-03-12T11:31:09.275Z,3.40
2019-03-12T11:33:37.073Z,3.00
2019-03-12T11:36:04.947Z,3.43
2019-03-12T11:38:32.783Z,2.70
2019-03-12T11:41:00.937Z,3.20
2019-03-12T11:43:29.051Z,2.90
2019-03-12T11:45:56.896Z,3.00
2019-03-12T11:48:24.778Z,2.90
2019-03-12T11:50:52.761Z,3.53
2019-03-12T11:53:20.568Z,3.50
2019-03-12T11:55:48.362Z,3.30
2019-03-12T11:58:16.245Z,3.23
2019-03-12T12:00:55.734Z,3.50
2019-03-12T12:03:23.619Z,3.93
2019-03-12T12:05:51.434Z,3.30
2019-03-12T12:08:19.239Z,3.17
2019-03-12T12:10:47.092Z,3.50
2019-03-12T12:13:14.873Z,3.37
2019-03-12T12:15:42.715Z,3.33
2019-03-12T12:18:10.638Z,3.33
2019-03-12T12:20:38.434Z,3.10
2019-03-12T12:23:06.293Z,3.23
2019-03-12T12:25:34.214Z,3.27
2019-03-12T12:28:02.014Z,3.47
2019-03-12T12:30:29.849Z,3.30
2019-03-12T12:32:57.667Z,3.43
2019-03-12T12:35:25.539Z,2.90
2019-03-12T12:37:53.361Z,2.90
2019-03-12T12:40:21.268Z,3.53
2019-03-12T12:42:49.441Z,3.30
2019-03-12T12:45:18.236Z,3.37
2019-03-12T12:47:46.041Z,3.33
2019-03-12T12:50:14.701Z,3.10
2019-03-12T12:52:42.631Z,3.30
2019-03-12T12:55:11.635Z,3.10
2019-03-12T12:57:39.597Z,3.10
2019-03-12T13:00:11.262Z,2.80
2019-03-12T13:02:39.069Z,3.00
2019-03-12T13:05:06.925Z,3.13
2019-03-12T13:07:34.704Z,3.10
2019-03-12T13:10:02.486Z,4.37
2019-03-12T13:12:30.326Z,3.50
2019-03-12T13:14:58.134Z,2.70
2019-03-12T13:17:25.979Z,2.63
2019-03-12T13:19:53.921Z,3.20
2019-03-12T13:22:21.857Z,2.73
2019-03-12T13:24:49.766Z,3.30
2019-03-12T13:27:17.545Z,3.07
2019-03-12T13:29:45.342Z,2.83
2019-03-12T13:32:13.996Z,3.00
2019-03-12T13:34:41.982Z,3.00
2019-03-12T13:37:09.847Z,3.20
2019-03-12T13:39:37.649Z,2.70
2019-03-12T13:42:05.450Z,2.90
2019-03-12T13:44:33.291Z,3.20
2019-03-12T13:47:01.142Z,3.13
2019-03-12T13:49:28.942Z,3.40
2019-03-12T13:51:56.843Z,3.03
2019-03-12T13:54:24.861Z,3.10
2019-03-12T13:56:52.770Z,3.13
2019-03-12T13:59:20.703Z,3.17
2019-03-12T14:01:48.512Z,2.80
2019-03-12T14:04:16.338Z,2.60
2019-03-12T14:06:44.276Z,3.00
2019-03-12T14:09:12.074Z,2.70
2019-03-12T14:11:39.887Z,2.37
2019-03-12T14:14:07.816Z,2.23
2019-03-12T14:16:35.614Z,2.50
2019-03-12T14:19:03.567Z,2.30
2019-03-12T14:21:37.446Z,2.30
2019-03-12T14:24:05.533Z,2.40
2019-03-12T14:26:33.302Z,2.40
2019-03-12T14:29:01.211Z,2.50
2019-03-12T14:31:29.205Z,2.17
2019-03-12T14:33:57.027Z,2.60
2019-03-12T14:36:24.948Z,2.30
2019-03-12T14:38:52.854Z,2.47
2019-03-12T14:41:20.753Z,2.40
2019-03-12T14:43:48.750Z,2.27
2019-03-12T14:46:16.972Z,2.70
2019-03-12T14:48:46.775Z,1.90
2019-03-12T14:51:30.170Z,2.30
2019-03-12T14:53:58.140Z,2.20
2019-03-12T14:56:27.953Z,2.63
2019-03-12T14:58:56.040Z,2.60
2019-03-12T15:01:24.131Z,2.27
2019-03-12T15:03:52.104Z,2.30
2019-03-12T15:06:19.930Z,2.60
2019-03-12T15:08:48.114Z,2.10
2019-03-12T15:11:15.986Z,2.57
2019-03-12T15:13:43.777Z,2.60
2019-03-12T15:16:11.645Z,2.43
2019-03-12T15:18:39.448Z,2.40
2019-03-12T15:21:07.499Z,1.97
2019-03-12T15:23:35.394Z,2.17
2019-03-12T15:26:03.279Z,2.53
2019-03-12T15:28:31.311Z,2.30
2019-03-12T15:31:02.054Z,2.50
2019-03-12T15:33:28.956Z,2.10
2019-03-12T15:35:56.805Z,2.20
2019-03-12T15:38:24.754Z,2.70
2019-03-12T15:40:54.308Z,3.43
2019-03-12T15:43:22.422Z,2.60
2019-03-12T15:45:50.231Z,2.50
2019-03-12T15:48:21.554Z,2.70
2019-03-12T15:50:47.972Z,2.30
2019-03-12T15:53:15.797Z,2.33
2019-03-12T15:55:43.619Z,2.70
2019-03-12T15:58:11.902Z,2.50
2019-03-12T16:00:39.712Z,2.43
2019-03-12T16:03:07.528Z,2.80
2019-03-12T16:05:35.538Z,2.80
2019-03-12T16:08:03.490Z,2.30
2019-03-12T16:10:31.380Z,3.20
2019-03-12T16:12:59.262Z,2.70
2019-03-12T16:15:27.104Z,2.70
2019-03-12T16:17:54.937Z,3.03
2019-03-12T16:20:23.016Z,3.10
2019-03-12T16:22:50.933Z,2.80
2019-03-12T16:25:18.816Z,2.90
2019-03-12T16:27:46.618Z,2.50
2019-03-12T16:30:14.533Z,2.47
2019-03-12T16:32:42.367Z,2.60
2019-03-12T16:35:10.164Z,2.80
2019-03-12T16:37:37.984Z,2.90
2019-03-12T16:40:05.975Z,2.67
2019-03-12T16:42:35.263Z,3.03
2019-03-12T16:45:03.745Z,2.83
2019-03-12T16:47:31.592Z,2.90
2019-03-12T16:49:59.441Z,3.10
2019-03-12T16:52:27.230Z,2.77
2019-03-12T16:54:57.206Z,3.00
2019-03-12T16:57:25.069Z,3.30
2019-03-12T16:59:52.966Z,3.60
2019-03-12T17:02:20.866Z,4.30
2019-03-12T17:04:48.688Z,3.80
2019-03-12T17:07:16.558Z,5.30
2019-03-12T17:09:44.396Z,4.80
2019-03-12T17:12:12.261Z,5.77
2019-03-12T17:14:40.114Z,5.13
2019-03-12T17:17:07.908Z,5.63
2019-03-12T17:19:35.726Z,5.60
2019-03-12T17:22:03.557Z,4.20
2019-03-12T17:24:31.423Z,4.30
2019-03-12T17:26:59.259Z,4.40
2019-03-12T17:29:27.117Z,4.10
2019-03-12T17:31:54.923Z,4.30
2019-03-12T17:34:34.795Z,3.80
2019-03-12T17:42:20.546Z,4.17
2019-03-12T17:44:48.402Z,3.83
2019-03-12T17:47:16.288Z,4.03
2019-03-12T17:49:44.090Z,4.13
2019-03-12T17:52:11.988Z,4.67
2019-03-12T17:54:39.865Z,4.10
2019-03-12T17:57:07.893Z,4.93
2019-03-12T17:59:35.782Z,4.20
2019-03-12T18:02:03.846Z,4.50
2019-03-12T18:04:33.003Z,4.30
2019-03-12T18:07:00.793Z,4.47
2019-03-12T18:09:28.614Z,4.80
2019-03-12T18:11:56.555Z,4.50
2019-03-12T18:14:24.393Z,4.63
2019-03-12T18:16:52.343Z,4.73
2019-03-12T18:19:20.161Z,4.33
2019-03-12T18:21:47.948Z,4.30
2019-03-12T18:24:15.812Z,4.80
2019-03-12T18:26:43.664Z,4.30
2019-03-12T18:29:11.479Z,4.90
2019-03-12T18:31:39.338Z,4.73
2019-03-12T18:34:07.116Z,4.47
2019-03-12T18:36:34.923Z,4.10
2019-03-12T18:39:04.386Z,4.30
2019-03-12T18:41:32.255Z,4.33
2019-03-12T18:44:00.682Z,7.77
2019-03-12T18:46:28.499Z,3.40
2019-03-12T18:48:56.336Z,3.87
2019-03-12T18:51:24.563Z,4.03
2019-03-12T18:53:52.416Z,3.77
2019-03-12T18:56:20.860Z,3.90
2019-03-12T18:58:49.758Z,3.50
2019-03-12T19:01:17.967Z,3.30
2019-03-12T19:03:45.879Z,3.53
2019-03-12T19:06:13.731Z,3.70
2019-03-12T19:08:47.468Z,3.20
2019-03-12T19:11:11.211Z,3.20
2019-03-12T19:13:40.247Z,3.53
2019-03-12T19:16:08.428Z,3.40
2019-03-12T19:18:36.369Z,3.47
2019-03-12T19:21:04.305Z,3.20
2019-03-12T19:23:32.184Z,3.23
2019-03-12T19:25:59.974Z,3.57
2019-03-12T19:28:27.883Z,3.70
2019-03-12T19:31:06.388Z,3.20
2019-03-12T19:33:34.184Z,3.43
2019-03-12T19:36:01.970Z,3.03
2019-03-12T19:38:30.313Z,3.70
2019-03-12T19:40:58.217Z,3.43
2019-03-12T19:43:26.043Z,3.10
2019-03-12T19:45:53.898Z,3.20
2019-03-12T19:48:21.780Z,3.33
2019-03-12T19:50:49.673Z,3.13
2019-03-12T19:53:18.761Z,3.83
2019-03-12T19:55:46.631Z,3.83
2019-03-12T19:58:14.487Z,3.80
2019-03-12T20:00:43.669Z,3.27
2019-03-12T20:03:15.151Z,3.27
2019-03-12T20:05:41.297Z,3.60
2019-03-12T20:08:09.596Z,3.30
2019-03-12T20:11:46.936Z,2.80
2019-03-12T20:14:55.458Z,3.43
2019-03-12T20:17:56.549Z,3.30
2019-03-12T20:21:00.879Z,3.07
2019-03-12T20:24:06.283Z,3.47
2019-03-12T20:27:29.613Z,3.50
2019-03-12T20:31:00.118Z,3.50
2019-03-12T20:33:46.110Z,3.10
2019-03-12T20:37:20.063Z,3.30
2019-03-12T20:40:24.486Z,3.20
2019-03-12T20:43:34.401Z,3.10
2019-03-12T20:46:44.105Z,4.50
2019-03-12T20:49:55.751Z,3.27
2019-03-12T20:53:04.050Z,3.10
2019-03-12T20:56:16.389Z,3.17
2019-03-12T20:59:33.893Z,3.30
2019-03-12T21:03:03.294Z,3.00
2019-03-12T21:06:21.565Z,3.00
2019-03-12T21:09:31.649Z,3.00
2019-03-12T21:12:37.011Z,3.10
2019-03-12T21:15:49.142Z,3.30
2019-03-12T21:18:40.695Z,2.87
2019-03-12T21:22:04.870Z,2.97
2019-03-12T21:25:20.436Z,3.00
2019-03-12T21:28:23.740Z,3.23
2019-03-12T21:30:51.627Z,3.17
2019-03-12T21:33:19.395Z,2.70
2019-03-12T21:35:47.215Z,3.00
2019-03-12T21:38:15.056Z,2.87
2019-03-12T21:40:42.857Z,3.40
2019-03-12T21:43:10.641Z,3.00
2019-03-12T21:45:38.515Z,2.77
2019-03-12T21:48:06.320Z,3.27
2019-03-12T21:50:34.128Z,3.13
2019-03-12T21:53:01.950Z,3.30
2019-03-12T21:55:29.800Z,2.87
2019-03-12T21:57:57.730Z,3.33
2019-03-12T22:00:25.553Z,3.20
2019-03-12T22:02:53.383Z,3.13
2019-03-12T22:05:21.203Z,3.67
2019-03-12T22:07:49.040Z,3.40
2019-03-12T22:10:16.829Z,3.27
2019-03-12T22:12:44.692Z,3.10
2019-03-12T22:15:12.713Z,3.20
2019-03-12T22:17:40.554Z,2.83
2019-03-12T22:20:09.554Z,3.50
2019-03-12T22:22:44.837Z,3.00
2019-03-12T22:25:12.990Z,3.23
2019-03-12T22:27:40.754Z,2.90
2019-03-12T22:30:15.046Z,3.23
2019-03-12T22:32:42.957Z,3.40
2019-03-12T22:35:10.790Z,3.50
2019-03-12T22:37:38.593Z,3.00
2019-03-12T22:40:08.342Z,3.50
2019-03-12T22:42:36.137Z,3.40
2019-03-12T22:45:04.632Z,3.47
2019-03-12T22:47:32.448Z,3.00
2019-03-12T22:50:00.300Z,4.03
2019-03-12T22:52:28.087Z,2.90
2019-03-12T22:54:56.905Z,3.53
2019-03-12T22:57:24.717Z,3.50
2019-03-12T22:59:52.592Z,3.50
2019-03-12T23:02:20.440Z,3.03
2019-03-12T23:04:50.729Z,3.47
2019-03-12T23:07:18.561Z,3.50
2019-03-12T23:09:46.557Z,3.40
2019-03-12T23:12:16.952Z,3.50
2019-03-12T23:14:44.051Z,3.60
2019-03-12T23:17:11.878Z,3.80
2019-03-12T23:19:39.743Z,3.50
2019-03-12T23:22:07.558Z,3.53
2019-03-12T23:24:35.375Z,3.60
2019-03-12T23:27:03.328Z,3.53
2019-03-12T23:29:31.219Z,3.50
2019-03-12T23:31:59.039Z,3.80
2019-03-12T23:34:26.869Z,3.80
2019-03-12T23:36:54.648Z,3.50
2019-03-12T23:39:22.502Z,3.83
2019-03-12T23:41:50.440Z,3.40
2019-03-12T23:44:18.701Z,4.00
2019-03-12T23:46:47.077Z,3.47
2019-03-12T23:49:15.366Z,3.30
2019-03-12T23:51:43.274Z,3.70
2019-03-12T23:54:11.105Z,3.33
2019-03-12T23:56:39.003Z,3.70
2019-03-12T23:59:06.911Z,3.60
